Time;durP1;ratioP1;P1;durP2;ratioP2;P2;SDS_P1;SDS_P2;PMS_P1;PMS_P2;Temp;Humidity;BMP_temperature;BMP_pressure;BME280_temperature;BME280_humidity;BME280_pressure;Samples;Min_cycle;Max_cycle;Signal;HPM_P1;HPM_P2
2021/05/27 00:01:03;;;;;;;8.20;4.97;;;9.10;99.90;;;;;;5030632;28;20038;-85
2021/05/27 00:03:29;;;;;;;8.88;5.25;;;9.00;99.90;;;;;;5029609;28;20045;-84
2021/05/27 00:05:55;;;;;;;14.60;5.20;;;9.00;99.90;;;;;;5031235;28;20033;-85
2021/05/27 00:08:21;;;;;;;6.15;4.50;;;9.00;99.90;;;;;;5031346;28;20033;-84
2021/05/27 00:10:48;;;;;;;8.85;5.57;;;8.90;99.90;;;;;;5030196;28;20021;-81
2021/05/27 00:13:14;;;;;;;7.70;4.85;;;9.00;99.90;;;;;;5030326;28;20034;-83
2021/05/27 00:15:41;;;;;;;8.35;5.35;;;9.00;99.90;;;;;;5012238;28;20046;-84
2021/05/27 00:18:07;;;;;;;7.75;5.10;;;8.90;99.90;;;;;;5026338;28;20470;-83
2021/05/27 00:20:34;;;;;;;8.95;5.30;;;8.80;99.90;;;;;;5031532;28;20109;-84
2021/05/27 00:23:00;;;;;;;10.10;5.75;;;8.70;99.90;;;;;;5030453;28;20479;-84
2021/05/27 00:25:26;;;;;;;13.73;5.82;;;8.70;99.90;;;;;;5030711;28;20044;-79
2021/05/27 00:27:53;;;;;;;7.22;4.68;;;8.70;99.90;;;;;;5018699;28;20033;-85
2021/05/27 00:30:19;;;;;;;6.47;4.55;;;8.80;99.90;;;;;;5031125;28;20036;-85
2021/05/27 00:32:46;;;;;;;8.07;5.32;;;8.70;99.90;;;;;;5034336;28;20033;-83
2021/05/27 00:35:13;;;;;;;5.75;4.55;;;8.70;99.90;;;;;;5049858;28;20063;-84
2021/05/27 00:37:40;;;;;;;6.90;5.55;;;8.70;99.90;;;;;;5051441;28;20490;-84
2021/05/27 00:40:08;;;;;;;8.40;5.25;;;8.80;99.90;;;;;;5034139;28;20049;-84
2021/05/27 00:42:35;;;;;;;6.88;5.38;;;8.70;99.90;;;;;;5050619;28;20033;-83
2021/05/27 00:45:07;;;;;;;9.18;6.07;;;8.70;99.90;;;;;;5050844;28;20479;-85
2021/05/27 00:47:34;;;;;;;8.73;5.78;;;8.80;99.90;;;;;;5032237;28;20390;-84
2021/05/27 00:50:01;;;;;;;6.95;5.07;;;8.80;99.90;;;;;;5050995;28;20029;-84
2021/05/27 00:52:27;;;;;;;9.45;5.97;;;8.80;99.90;;;;;;5049183;28;20049;-84
2021/05/27 00:54:58;;;;;;;7.88;6.18;;;8.80;99.90;;;;;;5032432;28;20041;-85
2021/05/27 00:57:31;;;;;;;17.20;8.60;;;8.90;99.90;;;;;;5049763;28;20486;-79
2021/05/27 00:59:59;;;;;;;11.93;7.70;;;8.90;99.90;;;;;;5049314;28;20402;-85
2021/05/27 01:02:25;;;;;;;10.93;8.73;;;9.00;99.90;;;;;;5050445;28;20033;-79
2021/05/27 01:04:52;;;;;;;11.52;8.32;;;8.90;99.90;;;;;;5050314;28;20036;-84
2021/05/27 01:07:18;;;;;;;9.88;8.82;;;8.80;99.90;;;;;;5050658;28;20033;-85
2021/05/27 01:09:45;;;;;;;12.73;8.05;;;8.80;99.90;;;;;;5018593;28;20056;-84
2021/05/27 01:12:12;;;;;;;9.57;8.07;;;8.80;99.90;;;;;;5013822;28;20169;-79
2021/05/27 01:17:23;;;;;;;10.80;8.82;;;8.80;99.90;;;;;;5020383;28;20490;-85
2021/05/27 01:19:52;;;;;;;11.13;8.90;;;8.80;99.90;;;;;;5037222;28;20154;-84
2021/05/27 01:22:20;;;;;;;11.18;8.52;;;8.70;99.90;;;;;;5053765;28;20048;-84
2021/05/27 01:24:48;;;;;;;12.70;8.98;;;8.70;99.90;;;;;;5035861;28;20618;-85
2021/05/27 01:27:14;;;;;;;12.02;8.02;;;8.60;99.90;;;;;;5052571;28;20040;-83
2021/05/27 01:29:41;;;;;;;16.40;7.40;;;8.60;99.90;;;;;;5052457;28;20107;-84
2021/05/27 01:32:09;;;;;;;9.60;7.35;;;8.60;99.90;;;;;;5017518;28;20044;-84
2021/05/27 01:34:36;;;;;;;12.45;8.07;;;8.60;99.90;;;;;;5034882;28;20044;-84
2021/05/27 01:37:04;;;;;;;10.32;7.88;;;8.50;99.90;;;;;;5035793;28;20509;-84
2021/05/27 01:39:32;;;;;;;9.93;7.85;;;8.50;99.90;;;;;;5035338;28;20037;-84
2021/05/27 01:41:59;;;;;;;13.13;8.68;;;8.50;99.90;;;;;;5034436;28;20375;-84
2021/05/27 01:44:25;;;;;;;9.90;8.02;;;8.40;99.90;;;;;;5054161;28;20029;-85
2021/05/27 01:46:51;;;;;;;14.15;8.75;;;8.30;99.90;;;;;;5035528;28;20059;-85
2021/05/27 01:49:17;;;;;;;13.93;8.43;;;8.30;99.90;;;;;;5054123;28;20028;-85
2021/05/27 01:51:49;;;;;;;8.75;7.57;;;8.20;99.90;;;;;;5077413;28;20020;-84
2021/05/27 01:54:17;;;;;;;9.50;8.25;;;8.10;99.90;;;;;;5059833;28;20063;-79
2021/05/27 01:56:44;;;;;;;11.98;8.95;;;8.00;99.90;;;;;;5045152;28;20048;-85
2021/05/27 01:59:12;;;;;;;10.35;7.63;;;8.00;99.90;;;;;;5035241;28;20044;-84
2021/05/27 02:01:42;;;;;;;10.77;7.85;;;7.90;99.90;;;;;;5035031;28;20049;-85
2021/05/27 02:04:09;;;;;;;7.10;6.40;;;7.80;99.90;;;;;;5046624;28;20505;-85
2021/05/27 02:06:36;;;;;;;11.93;7.78;;;7.70;99.90;;;;;;5034738;28;20512;-85
2021/05/27 02:09:12;;;;;;;14.65;6.82;;;7.60;99.90;;;;;;5051938;28;20504;-84
2021/05/27 02:11:48;;;;;;;9.43;7.25;;;7.60;99.90;;;;;;5052409;28;20049;-85
2021/05/27 02:14:21;;;;;;;10.75;6.45;;;7.60;99.90;;;;;;5035546;28;20060;-81
2021/05/27 02:16:48;;;;;;;9.00;6.93;;;7.60;99.90;;;;;;5033213;28;20033;-84
2021/05/27 02:19:14;;;;;;;12.15;6.90;;;7.50;99.90;;;;;;5053658;28;20045;-84
2021/05/27 02:21:44;;;;;;;9.10;6.35;;;7.60;99.90;;;;;;5026375;28;20044;-84
2021/05/27 02:24:15;;;;;;;8.82;6.65;;;7.60;99.90;;;;;;5016976;28;20037;-84
2021/05/27 02:26:41;;;;;;;12.02;6.55;;;7.50;99.90;;;;;;5016070;28;20045;-84
2021/05/27 02:29:12;;;;;;;8.13;6.53;;;7.40;99.90;;;;;;5016492;28;20045;-84
2021/05/27 02:31:40;;;;;;;10.23;7.20;;;7.40;99.90;;;;;;5045138;28;20037;-84
2021/05/27 02:34:09;;;;;;;9.52;7.13;;;7.40;99.90;;;;;;5026984;28;20498;-84
2021/05/27 02:36:38;;;;;;;13.15;7.68;;;7.30;99.90;;;;;;5031301;28;20054;-84
2021/05/27 02:39:06;;;;;;;9.27;8.23;;;7.30;99.90;;;;;;5045683;28;20037;-84
2021/05/27 02:42:00;;;;;;;10.98;8.02;;;7.20;99.90;;;;;;5035183;28;20542;-84
2021/05/27 02:44:28;;;;;;;10.38;8.07;;;7.20;99.90;;;;;;5050810;28;20049;-79
2021/05/27 02:46:55;;;;;;;8.90;7.20;;;7.20;99.90;;;;;;5055722;28;20039;-84
2021/05/27 02:49:22;;;;;;;10.75;8.10;;;7.10;99.90;;;;;;5052355;28;20033;-85
2021/05/27 02:51:48;;;;;;;12.00;8.55;;;7.10;99.90;;;;;;5050663;28;20035;-85
2021/05/27 02:54:15;;;;;;;12.80;9.75;;;7.10;99.90;;;;;;5051988;28;20029;-85
2021/05/27 02:56:42;;;;;;;13.65;9.32;;;7.20;99.90;;;;;;5049356;28;20049;-85
2021/05/27 02:59:10;;;;;;;14.38;10.18;;;7.20;99.90;;;;;;5034445;28;20041;-85
2021/05/27 03:01:38;;;;;;;12.75;9.30;;;7.30;99.90;;;;;;5030382;28;20038;-84
2021/05/27 03:04:05;;;;;;;18.25;10.48;;;7.30;99.90;;;;;;5028673;28;20041;-85
2021/05/27 03:06:32;;;;;;;12.05;10.00;;;7.40;99.90;;;;;;5051185;28;20446;-83
2021/05/27 03:09:00;;;;;;;14.32;11.02;;;7.50;99.90;;;;;;5052037;28;20036;-84
2021/05/27 03:11:26;;;;;;;12.93;10.93;;;7.60;99.90;;;;;;5051678;28;20056;-84
2021/05/27 03:13:57;;;;;;;;;;;7.60;99.90;;;;;;5052510;28;20041;-84
2021/05/27 03:16:27;;;;;;;17.00;10.93;;;7.60;99.90;;;;;;5034130;28;19916;-84
2021/05/27 03:18:54;;;;;;;15.82;11.25;;;7.60;99.90;;;;;;5034001;28;20044;-84
2021/05/27 03:21:23;;;;;;;15.65;10.38;;;7.50;99.90;;;;;;5028705;28;20041;-84
2021/05/27 03:23:49;;;;;;;14.77;10.35;;;7.50;99.90;;;;;;5036515;28;20052;-84
2021/05/27 03:26:16;;;;;;;14.93;11.07;;;7.60;99.90;;;;;;5033857;28;20063;-85
2021/05/27 03:28:44;;;;;;;13.90;10.77;;;7.60;99.90;;;;;;5050726;28;20032;-85
2021/05/27 03:31:15;;;;;;;;;;;7.70;99.90;;;;;;5050858;28;20624;-85
2021/05/27 03:33:44;;;;;;;14.40;11.02;;;7.80;99.90;;;;;;5050964;28;20728;-85
2021/05/27 03:36:10;;;;;;;16.65;11.38;;;7.80;99.90;;;;;;5032302;28;20049;-85
2021/05/27 03:38:38;;;;;;;13.60;10.82;;;7.90;99.90;;;;;;5050481;28;20505;-84
2021/05/27 03:41:05;;;;;;;13.52;11.25;;;7.80;99.90;;;;;;5049780;28;20037;-85
2021/05/27 03:43:34;;;;;;;17.08;11.18;;;8.00;99.90;;;;;;5050359;28;20041;-81
2021/05/27 03:46:01;;;;;;;14.40;10.15;;;8.00;99.90;;;;;;5033421;28;20040;-84
2021/05/27 03:48:30;;;;;;;14.38;9.68;;;8.00;99.90;;;;;;5033046;28;20041;-78
2021/05/27 03:50:57;;;;;;;14.50;9.80;;;8.00;99.90;;;;;;5051064;28;20033;-84
2021/05/27 03:53:27;;;;;;;;;;;8.00;99.90;;;;;;5033608;28;20390;-85
2021/05/27 03:55:58;;;;;;;13.00;9.60;;;8.00;99.90;;;;;;5033477;28;20388;-84
2021/05/27 04:01:09;;;;;;;13.57;10.63;;;8.10;99.90;;;;;;5037520;28;20040;-85
2021/05/27 04:09:24;;;;;;;12.27;8.82;;;8.20;99.90;;;;;;5031559;28;20041;-79
2021/05/27 04:11:50;;;;;;;11.10;9.20;;;8.20;99.90;;;;;;5031014;28;20501;-79
2021/05/27 04:14:16;;;;;;;11.30;9.18;;;8.20;99.90;;;;;;5049134;28;20036;-79
2021/05/27 04:16:43;;;;;;;12.48;8.73;;;8.30;99.90;;;;;;5033436;28;20037;-80
2021/05/27 04:19:09;;;;;;;11.23;8.77;;;8.30;99.90;;;;;;5050399;28;20028;-79
2021/05/27 04:21:35;;;;;;;10.18;8.63;;;8.30;99.90;;;;;;5049205;28;20510;-79
2021/05/27 04:24:01;;;;;;;10.73;8.45;;;8.40;99.90;;;;;;5050729;28;20029;-79
2021/05/27 04:26:27;;;;;;;11.88;9.70;;;8.40;99.90;;;;;;5050617;28;20044;-80
2021/05/27 04:28:54;;;;;;;13.55;10.48;;;8.50;99.90;;;;;;5049774;28;20374;-80
2021/05/27 04:31:21;;;;;;;12.23;9.73;;;8.50;99.90;;;;;;5049626;28;20040;-80
2021/05/27 04:33:53;;;;;;;14.82;10.57;;;8.50;99.90;;;;;;5051283;28;20055;-80
2021/05/27 04:36:21;;;;;;;14.43;9.95;;;8.50;99.90;;;;;;5049398;28;20056;-79
2021/05/27 04:38:50;;;;;;;11.32;8.60;;;8.60;99.90;;;;;;5049409;28;20040;-79
2021/05/27 04:41:17;;;;;;;11.23;8.15;;;8.60;99.90;;;;;;5050378;28;20707;-79
2021/05/27 04:43:46;;;;;;;8.65;7.72;;;8.60;99.90;;;;;;5050075;28;20032;-79
2021/05/27 04:46:13;;;;;;;12.00;7.60;;;8.70;99.90;;;;;;5050512;28;20033;-79
2021/05/27 04:48:39;;;;;;;12.60;8.35;;;8.70;99.90;;;;;;5048791;28;20056;-80
2021/05/27 04:51:05;;;;;;;13.32;8.25;;;8.70;99.90;;;;;;5049218;28;20025;-79
2021/05/27 04:53:32;;;;;;;12.65;8.27;;;8.70;99.90;;;;;;5053996;28;20366;-78
2021/05/27 04:55:58;;;;;;;10.93;9.00;;;8.80;99.90;;;;;;5052992;28;20057;-79
2021/05/27 04:58:25;;;;;;;11.85;9.40;;;8.80;99.90;;;;;;5054152;28;20033;-79
2021/05/27 05:00:51;;;;;;;12.68;10.13;;;8.90;99.90;;;;;;5053546;28;20225;-79
2021/05/27 05:03:17;;;;;;;12.15;8.77;;;9.00;99.90;;;;;;5052825;28;20040;-80
2021/05/27 05:05:44;;;;;;;11.18;8.38;;;9.10;99.90;;;;;;5040775;28;20040;-79
2021/05/27 05:08:10;;;;;;;8.90;7.22;;;9.10;99.90;;;;;;5036709;28;20364;-79
2021/05/27 05:10:37;;;;;;;10.10;6.97;;;9.10;99.90;;;;;;5039622;28;20036;-79
2021/05/27 05:13:07;;;;;;;10.75;7.65;;;9.10;99.90;;;;;;5030175;28;20052;-78
2021/05/27 05:15:35;;;;;;;9.05;6.70;;;9.20;99.90;;;;;;5052964;28;20405;-77
2021/05/27 05:18:20;;;;;;;8.93;6.50;;;9.20;99.90;;;;;;5034835;28;20038;-80
2021/05/27 05:20:50;;;;;;;7.50;6.45;;;9.10;99.90;;;;;;5051661;28;20033;-79
2021/05/27 05:23:18;;;;;;;8.85;6.72;;;9.00;99.90;;;;;;5053785;28;20036;-79
2021/05/27 05:25:44;;;;;;;8.68;6.32;;;9.00;99.90;;;;;;5053838;28;20033;-80
2021/05/27 05:28:14;;;;;;;7.85;7.03;;;9.00;99.90;;;;;;5052959;28;20029;-81
2021/05/27 05:30:41;;;;;;;6.97;6.13;;;9.20;99.90;;;;;;5052725;28;20458;-81
2021/05/27 05:33:07;;;;;;;9.80;7.25;;;9.30;99.90;;;;;;5051003;28;20496;-80
2021/05/27 05:35:33;;;;;;;9.75;6.57;;;9.50;99.90;;;;;;5042270;28;20048;-78
2021/05/27 05:38:00;;;;;;;8.15;6.63;;;9.60;99.90;;;;;;5054344;28;20049;-80
2021/05/27 05:40:29;;;;;;;10.82;7.30;;;9.80;99.90;;;;;;5074264;28;20032;-80
2021/05/27 05:42:56;;;;;;;12.57;9.10;;;9.90;99.90;;;;;;5071987;28;20029;-81
2021/05/27 05:45:23;;;;;;;8.65;6.00;;;9.90;99.90;;;;;;5059195;28;20040;-81
2021/05/27 05:47:51;;;;;;;5.78;5.18;;;10.00;99.90;;;;;;5036002;28;20493;-79
2021/05/27 05:53:08;;;;;;;7.95;6.68;;;10.00;99.90;;;;;;5033811;28;20045;-80
2021/05/27 05:55:35;;;;;;;10.15;8.73;;;10.00;99.90;;;;;;5034370;28;20463;-82
2021/05/27 05:58:03;;;;;;;12.73;8.55;;;10.00;99.90;;;;;;5034119;28;20045;-80
2021/05/27 06:00:30;;;;;;;9.60;7.20;;;10.00;99.90;;;;;;5047322;28;20033;-80
2021/05/27 06:02:57;;;;;;;8.57;7.78;;;10.10;99.90;;;;;;5051734;28;20386;-79
2021/05/27 06:05:41;;;;;;;14.13;8.88;;;10.20;99.90;;;;;;5033970;28;20044;-80
2021/05/27 06:08:19;;;;;;;12.63;8.57;;;10.30;99.90;;;;;;5018922;28;20045;-79
2021/05/27 06:10:46;;;;;;;10.70;7.10;;;10.50;99.90;;;;;;5029383;28;20067;-80
2021/05/27 06:13:14;;;;;;;10.05;6.32;;;10.50;99.90;;;;;;5052696;28;20040;-80
2021/05/27 06:15:42;;;;;;;9.88;6.75;;;10.70;99.90;;;;;;5042190;28;20040;-79
2021/05/27 06:18:09;;;;;;;12.02;7.75;;;10.90;99.90;;;;;;5050891;28;20049;-80
2021/05/27 06:20:40;;;;;;;13.05;6.68;;;11.00;99.90;;;;;;5034840;28;20501;-79
2021/05/27 06:23:10;;;;;;;7.95;5.43;;;11.00;99.90;;;;;;5034727;28;20048;-80
2021/05/27 06:25:39;;;;;;;6.70;3.88;;;11.10;99.90;;;;;;5052237;28;20056;-79
2021/05/27 06:28:05;;;;;;;7.93;4.72;;;11.10;99.90;;;;;;5050405;28;20387;-79
2021/05/27 06:30:31;;;;;;;6.63;4.43;;;11.10;99.90;;;;;;5052713;28;20036;-79
2021/05/27 06:33:00;;;;;;;7.85;3.83;;;11.10;99.90;;;;;;5052184;28;20037;-80
2021/05/27 06:35:27;;;;;;;7.53;4.53;;;11.10;99.90;;;;;;5052759;28;20025;-79
2021/05/27 06:37:54;;;;;;;6.63;3.88;;;11.10;99.90;;;;;;5052061;28;20037;-80
2021/05/27 06:40:23;;;;;;;8.77;4.25;;;11.10;99.90;;;;;;5051396;28;20375;-79
2021/05/27 06:42:50;;;;;;;6.63;4.13;;;11.10;99.90;;;;;;5051493;28;20052;-80
2021/05/27 06:45:18;;;;;;;12.73;5.35;;;11.10;99.90;;;;;;5035247;28;20060;-79
2021/05/27 06:47:45;;;;;;;6.55;4.50;;;11.10;99.90;;;;;;5050139;28;20055;-79
2021/05/27 06:50:13;;;;;;;10.00;5.13;;;11.10;99.90;;;;;;5052114;28;20033;-79
2021/05/27 06:52:39;;;;;;;6.40;4.47;;;11.00;99.90;;;;;;5051508;28;20029;-78
2021/05/27 06:55:07;;;;;;;6.90;4.90;;;11.00;99.90;;;;;;5034002;28;20049;-79
2021/05/27 06:57:34;;;;;;;7.80;3.47;;;11.00;99.90;;;;;;5051689;28;20033;-78
2021/05/27 07:00:00;;;;;;;8.45;4.05;;;11.10;99.90;;;;;;5052124;28;20029;-79
2021/05/27 07:02:26;;;;;;;4.90;3.00;;;11.00;99.90;;;;;;5052012;28;20352;-79
2021/05/27 07:04:52;;;;;;;7.45;3.15;;;11.00;99.90;;;;;;5032838;28;20037;-79
2021/05/27 07:07:19;;;;;;;4.35;2.90;;;10.90;99.90;;;;;;5051339;28;20029;-79
2021/05/27 07:09:45;;;;;;;5.20;3.15;;;10.90;99.90;;;;;;5033570;28;20314;-79
2021/05/27 07:12:11;;;;;;;6.10;2.80;;;10.90;99.90;;;;;;5051816;28;20029;-79
2021/05/27 07:14:38;;;;;;;6.30;2.50;;;10.80;99.90;;;;;;5033220;28;20048;-79
2021/05/27 07:17:04;;;;;;;4.85;2.60;;;10.90;99.90;;;;;;5051584;28;20462;-80
2021/05/27 07:19:31;;;;;;;4.95;2.38;;;10.80;99.90;;;;;;5043218;28;20029;-79
2021/05/27 07:21:59;;;;;;;8.85;5.65;;;10.80;99.90;;;;;;5049828;28;20029;-80
2021/05/27 07:24:26;;;;;;;4.40;3.80;;;10.80;99.90;;;;;;5050420;28;20037;-79
2021/05/27 07:26:52;;;;;;;11.05;6.60;;;10.90;99.90;;;;;;5051346;28;20045;-79
2021/05/27 07:29:18;;;;;;;15.70;10.32;;;10.90;99.90;;;;;;5033990;28;20037;-79
2021/05/27 07:31:44;;;;;;;7.10;3.88;;;11.00;99.90;;;;;;5050851;28;20037;-79
2021/05/27 07:34:11;;;;;;;9.00;6.97;;;11.00;99.90;;;;;;5051059;28;20049;-80
2021/05/27 07:36:37;;;;;;;5.78;4.60;;;11.00;99.90;;;;;;5049992;28;20033;-79
2021/05/27 07:39:03;;;;;;;5.28;3.40;;;11.00;99.90;;;;;;5052046;28;20047;-79
2021/05/27 07:41:30;;;;;;;6.38;4.35;;;11.10;99.90;;;;;;5051566;28;20020;-79
2021/05/27 07:43:56;;;;;;;7.63;6.80;;;11.10;99.90;;;;;;5051037;28;20056;-79
2021/05/27 07:46:22;;;;;;;5.72;4.45;;;11.00;99.90;;;;;;5051203;28;20033;-79
2021/05/27 07:48:49;;;;;;;6.63;3.80;;;11.00;99.90;;;;;;5049683;28;20394;-79
2021/05/27 07:51:15;;;;;;;6.20;3.78;;;11.00;99.90;;;;;;5033970;28;20041;-79
2021/05/27 07:53:41;;;;;;;5.93;3.53;;;11.00;99.90;;;;;;5050317;28;20037;-79
2021/05/27 07:56:07;;;;;;;9.13;4.38;;;11.10;99.90;;;;;;5051224;28;20465;-78
2021/05/27 07:58:35;;;;;;;5.93;3.88;;;11.10;99.90;;;;;;5039110;28;20048;-79
2021/05/27 08:01:02;;;;;;;10.13;3.95;;;11.10;99.90;;;;;;5051912;28;20029;-79
2021/05/27 08:03:28;;;;;;;9.10;3.40;;;11.10;99.90;;;;;;5050428;28;20033;-79
2021/05/27 08:05:54;;;;;;;6.80;3.60;;;11.10;99.90;;;;;;5049629;28;20025;-78
2021/05/27 08:08:20;;;;;;;6.70;3.60;;;11.20;99.90;;;;;;5033203;28;20045;-79
2021/05/27 08:10:46;;;;;;;8.25;3.00;;;11.20;99.90;;;;;;5050642;28;20104;-79
2021/05/27 08:13:14;;;;;;;3.80;2.50;;;11.20;99.90;;;;;;5049744;28;20037;-77
2021/05/27 08:15:42;;;;;;;3.10;2.00;;;11.20;99.00;;;;;;5050687;28;20033;-79
2021/05/27 08:18:08;;;;;;;4.30;2.33;;;11.20;98.70;;;;;;5033309;28;20056;-80
2021/05/27 08:20:34;;;;;;;4.88;3.20;;;11.30;98.70;;;;;;5051468;28;20049;-82
2021/05/27 08:23:01;;;;;;;6.07;2.75;;;11.40;97.80;;;;;;5050574;28;20040;-81
2021/05/27 08:25:27;;;;;;;4.10;2.58;;;11.50;97.10;;;;;;5052384;28;20458;-81
2021/05/27 08:27:54;;;;;;;8.25;3.35;;;11.60;96.90;;;;;;5054304;28;20029;-81
2021/05/27 08:30:20;;;;;;;5.40;2.80;;;11.60;96.60;;;;;;5054761;28;20024;-80
2021/05/27 08:32:46;;;;;;;6.40;3.50;;;11.70;96.10;;;;;;5053077;28;20049;-81
2021/05/27 08:35:13;;;;;;;8.63;3.30;;;11.80;96.90;;;;;;5055014;28;20035;-80
2021/05/27 08:37:40;;;;;;;7.03;3.90;;;11.90;96.70;;;;;;5054262;28;20521;-79
2021/05/27 08:40:06;;;;;;;8.20;4.45;;;12.00;96.10;;;;;;5055784;28;20378;-79
2021/05/27 08:42:35;;;;;;;7.15;4.30;;;12.20;95.50;;;;;;5053483;28;20031;-81
2021/05/27 08:45:04;;;;;;;9.45;4.85;;;12.30;94.40;;;;;;5036952;28;20497;-79
2021/05/27 08:47:30;;;;;;;8.38;5.28;;;12.20;94.90;;;;;;5054563;28;20025;-79
2021/05/27 08:50:00;;;;;;;8.98;4.75;;;12.10;94.20;;;;;;5053901;28;20269;-80
2021/05/27 08:52:26;;;;;;;11.48;4.82;;;12.10;94.40;;;;;;5049311;28;20041;-79
2021/05/27 08:54:53;;;;;;;6.70;3.65;;;12.20;94.90;;;;;;5048295;28;20033;-80
2021/05/27 08:57:19;;;;;;;6.22;5.07;;;12.20;94.30;;;;;;5054225;28;20041;-80
2021/05/27 08:59:45;;;;;;;8.80;4.50;;;12.30;94.80;;;;;;5053645;28;20029;-81
2021/05/27 09:02:12;;;;;;;7.78;5.10;;;12.30;94.00;;;;;;5054170;28;20029;-81
2021/05/27 09:04:39;;;;;;;6.47;4.57;;;12.40;93.40;;;;;;5053317;28;20036;-80
2021/05/27 09:07:07;;;;;;;9.85;5.05;;;12.50;93.20;;;;;;5035923;28;20038;-80
2021/05/27 09:09:50;;;;;;;8.98;5.25;;;12.70;93.10;;;;;;5054003;28;20033;-80
2021/05/27 09:12:29;;;;;;;5.75;4.47;;;13.00;92.30;;;;;;5053126;28;20025;-82
2021/05/27 09:14:57;;;;;;;7.97;3.60;;;12.90;92.00;;;;;;5053806;28;20029;-80
2021/05/27 09:17:23;;;;;;;5.00;3.70;;;12.90;91.40;;;;;;5052949;28;20036;-79
2021/05/27 09:20:21;;;;;;;5.30;4.35;;;13.00;91.00;;;;;;5053338;28;20454;-79
2021/05/27 09:23:04;;;;;;;5.35;3.28;;;13.00;90.20;;;;;;5053598;28;20021;-79
2021/05/27 09:25:31;;;;;;;5.45;3.75;;;13.00;90.70;;;;;;5054495;28;20052;-80
2021/05/27 09:27:57;;;;;;;4.78;3.92;;;13.20;90.20;;;;;;5053147;28;20036;-79
2021/05/27 09:30:24;;;;;;;13.52;3.78;;;13.60;89.70;;;;;;5054783;28;20485;-80
2021/05/27 09:32:52;;;;;;;6.43;3.40;;;13.60;88.30;;;;;;5052752;28;20061;-82
2021/05/27 09:35:20;;;;;;;4.75;3.20;;;13.80;86.50;;;;;;5053697;28;20056;-79
2021/05/27 09:37:55;;;;;;;4.78;3.28;;;13.50;85.20;;;;;;5053697;28;20041;-78
2021/05/27 09:40:30;;;;;;;4.55;3.50;;;13.50;87.60;;;;;;5054168;28;20041;-80
2021/05/27 09:42:58;;;;;;;5.20;3.13;;;13.80;86.00;;;;;;5053358;28;20048;-79
2021/05/27 09:45:27;;;;;;;5.15;3.10;;;14.30;85.30;;;;;;5054864;28;20392;-79
2021/05/27 09:47:53;;;;;;;5.60;2.72;;;14.50;83.70;;;;;;5054105;28;20482;-79
2021/05/27 09:50:30;;;;;;;5.07;3.05;;;14.50;84.20;;;;;;5053612;28;20036;-79
2021/05/27 09:53:18;;;;;;;8.50;3.42;;;14.30;84.40;;;;;;5045814;28;20037;-79
2021/05/27 09:55:45;;;;;;;5.18;3.00;;;14.10;84.10;;;;;;5053625;28;20068;-79
2021/05/27 09:58:13;;;;;;;5.10;3.38;;;14.10;84.40;;;;;;5052968;28;20053;-79
2021/05/27 10:00:41;;;;;;;5.05;3.10;;;13.90;82.70;;;;;;5053023;28;20044;-79
2021/05/27 10:03:33;;;;;;;7.47;3.78;;;13.90;83.40;;;;;;5043525;28;20037;-80
2021/05/27 10:06:09;;;;;;;5.22;2.78;;;14.00;83.00;;;;;;5046679;28;20029;-80
2021/05/27 10:08:55;;;;;;;5.10;2.60;;;14.30;81.60;;;;;;5041616;28;20033;-79
2021/05/27 10:11:24;;;;;;;4.35;2.92;;;14.70;79.40;;;;;;5053904;28;20390;-81
2021/05/27 10:13:52;;;;;;;2.40;1.83;;;14.40;78.90;;;;;;5032942;28;20056;-79
2021/05/27 10:16:22;;;;;;;4.95;2.65;;;14.60;78.90;;;;;;5042587;28;20028;-80
2021/05/27 10:18:50;;;;;;;3.72;2.50;;;15.20;78.10;;;;;;5052643;28;20063;-80
2021/05/27 10:21:16;;;;;;;3.58;2.10;;;15.80;74.80;;;;;;5052210;28;20052;-80
2021/05/27 10:23:42;;;;;;;5.75;1.90;;;16.10;73.80;;;;;;5051724;28;20029;-81
2021/05/27 10:26:09;;;;;;;3.55;2.33;;;16.80;71.40;;;;;;5052158;28;20037;-79
2021/05/27 10:28:37;;;;;;;3.90;2.13;;;17.10;70.20;;;;;;5036354;28;20052;-81
2021/05/27 10:31:04;;;;;;;4.15;2.20;;;17.10;68.70;;;;;;5052576;28;20389;-82
2021/05/27 10:33:39;;;;;;;2.78;1.65;;;16.80;67.60;;;;;;5053216;28;20048;-81
2021/05/27 10:36:07;;;;;;;2.90;1.48;;;16.40;68.10;;;;;;5052037;28;20045;-81
2021/05/27 10:38:39;;;;;;;4.00;1.77;;;15.80;68.00;;;;;;5052645;28;20041;-81
2021/05/27 10:41:18;;;;;;;2.53;1.77;;;15.80;69.50;;;;;;5052516;28;20036;-82
2021/05/27 10:44:03;;;;;;;4.07;2.17;;;15.50;69.50;;;;;;5052215;28;20489;-81
2021/05/27 10:46:52;;;;;;;3.60;2.08;;;15.40;70.70;;;;;;5052546;28;20032;-81
2021/05/27 10:49:41;;;;;;;4.78;2.10;;;15.90;69.80;;;;;;5050258;28;20057;-80
2021/05/27 10:52:35;;;;;;;3.42;2.13;;;15.70;69.60;;;;;;5035260;28;20446;-82
2021/05/27 10:55:05;;;;;;;3.88;2.17;;;15.40;70.50;;;;;;5052830;28;20495;-80
2021/05/27 10:57:40;;;;;;;4.33;2.33;;;15.30;72.40;;;;;;5052492;28;20036;-80
2021/05/27 11:00:19;;;;;;;3.33;2.08;;;15.80;70.00;;;;;;5048549;28;20036;-79
2021/05/27 11:02:45;;;;;;;6.82;3.38;;;16.30;68.00;;;;;;5032800;28;20052;-79
2021/05/27 11:05:17;;;;;;;2.40;1.92;;;16.40;66.30;;;;;;5050100;28;20351;-81
2021/05/27 11:08:21;;;;;;;4.60;2.97;;;16.20;67.50;;;;;;5051884;28;20055;-79
2021/05/27 11:10:48;;;;;;;4.30;3.17;;;16.20;68.70;;;;;;5050680;28;20033;-79
2021/05/27 11:13:14;;;;;;;5.32;2.90;;;16.10;67.90;;;;;;5052219;28;20029;-79
2021/05/27 11:16:03;;;;;;;3.40;2.15;;;15.80;68.30;;;;;;5051917;28;20033;-80
2021/05/27 11:18:33;;;;;;;4.57;1.88;;;15.60;68.20;;;;;;5050046;28;20045;-80
2021/05/27 11:21:19;;;;;;;;;;;15.80;68.40;;;;;;5052496;28;20037;-79
2021/05/27 11:24:38;;;;;;;3.30;1.80;;;16.10;66.10;;;;;;5050705;28;20796;-79
2021/05/27 11:27:40;;;;;;;3.80;1.83;;;16.10;65.20;;;;;;4963976;28;20054;-79
2021/05/27 11:30:24;;;;;;;4.47;1.50;;;15.90;67.20;;;;;;5010004;28;20037;-79
2021/05/27 11:33:02;;;;;;;6.78;1.33;;;16.00;66.10;;;;;;5042844;28;20455;-80
2021/05/27 11:35:38;;;;;;;4.53;1.95;;;16.20;65.80;;;;;;5034059;28;20060;-80
2021/05/27 11:38:07;;;;;;;3.30;1.67;;;16.70;65.10;;;;;;5050492;28;20053;-80
2021/05/27 11:40:36;;;;;;;2.33;1.30;;;16.70;64.20;;;;;;5051059;28;20033;-81
2021/05/27 11:43:03;;;;;;;4.40;1.30;;;16.30;64.40;;;;;;5049653;28;20282;-79
2021/05/27 11:45:57;;;;;;;5.97;1.40;;;16.40;64.10;;;;;;5051313;28;20028;-80
2021/05/27 11:48:40;;;;;;;3.08;1.50;;;16.50;63.60;;;;;;5051259;28;20037;-82
2021/05/27 11:51:18;;;;;;;2.85;1.10;;;16.30;64.00;;;;;;5040956;28;20041;-81
2021/05/27 11:53:49;;;;;;;2.85;1.20;;;16.10;63.30;;;;;;5044539;28;20220;-81
2021/05/27 11:56:41;;;;;;;2.97;1.45;;;15.70;65.00;;;;;;5051220;28;20033;-80
2021/05/27 11:59:19;;;;;;;4.47;1.52;;;15.70;64.40;;;;;;5050203;28;20041;-80
2021/05/27 12:01:50;;;;;;;4.40;1.23;;;15.90;64.00;;;;;;5016731;28;20033;-79
2021/05/27 12:04:21;;;;;;;2.30;1.02;;;16.10;64.70;;;;;;5051331;28;20033;-79
2021/05/27 12:06:56;;;;;;;4.80;1.10;;;16.30;63.70;;;;;;5033681;28;20374;-79
2021/05/27 12:09:41;;;;;;;2.55;1.23;;;16.50;61.90;;;;;;5034275;28;20060;-79
2021/05/27 12:12:17;;;;;;;28.70;2.80;;;16.50;61.20;;;;;;5035065;28;20108;-80
2021/05/27 12:14:55;;;;;;;35.60;3.65;;;16.60;61.00;;;;;;5050998;28;20040;-78
2021/05/27 12:17:33;;;;;;;12.27;2.35;;;16.40;60.90;;;;;;5055450;28;20029;-79
2021/05/27 12:20:08;;;;;;;10.25;1.42;;;16.30;61.00;;;;;;5074885;28;20027;-79
2021/05/27 12:22:49;;;;;;;1.80;0.95;;;16.00;64.00;;;;;;5066886;28;20048;-78
2021/05/27 12:25:19;;;;;;;2.95;0.80;;;16.00;63.80;;;;;;5048039;28;20029;-80
2021/05/27 12:27:48;;;;;;;2.42;1.20;;;16.00;64.00;;;;;;5017933;28;20029;-82
2021/05/27 12:30:32;;;;;;;2.88;1.20;;;15.90;62.70;;;;;;5051358;28;20032;-80
2021/05/27 12:32:59;;;;;;;2.40;1.00;;;15.90;63.70;;;;;;5042382;28;20049;-81
2021/05/27 12:35:34;;;;;;;2.10;1.02;;;15.90;65.00;;;;;;5050190;28;20056;-81
2021/05/27 12:38:02;;;;;;;3.90;0.80;;;15.80;64.20;;;;;;5042504;28;20049;-78
2021/05/27 12:40:35;;;;;;;2.97;0.90;;;15.80;63.40;;;;;;5050703;28;20478;-83
2021/05/27 12:43:20;;;;;;;2.20;1.10;;;15.40;64.20;;;;;;5050954;28;20033;-83
2021/05/27 12:45:48;;;;;;;4.85;1.15;;;15.30;66.10;;;;;;5050860;28;20025;-85
2021/05/27 12:48:17;;;;;;;1.63;1.00;;;14.40;79.30;;;;;;5041596;28;20037;-87
2021/05/27 12:50:57;;;;;;;3.45;1.77;;;13.40;88.10;;;;;;5049134;28;20052;-81
2021/05/27 12:53:51;;;;;;;3.03;1.60;;;13.00;95.70;;;;;;5041086;28;20048;-86
2021/05/27 12:56:23;;;;;;;3.78;2.33;;;12.80;99.90;;;;;;5062546;28;20355;-85
2021/05/27 12:58:55;;;;;;;2.90;1.95;;;12.70;99.90;;;;;;5060534;28;20037;-85
2021/05/27 13:01:36;;;;;;;2.35;2.05;;;12.70;99.90;;;;;;5074343;28;20033;-87
2021/05/27 13:04:04;;;;;;;3.42;1.85;;;12.80;99.90;;;;;;5031118;28;20467;-88
2021/05/27 13:06:35;;;;;;;3.33;1.42;;;13.00;99.90;;;;;;5045374;28;20033;-87
2021/05/27 13:09:06;;;;;;;4.45;1.40;;;13.20;99.90;;;;;;5049907;28;20478;-87
2021/05/27 13:11:34;;;;;;;;;;;13.30;99.90;;;;;;5052801;28;20041;-87
2021/05/27 13:14:14;;;;;;;6.13;1.73;;;13.50;99.90;;;;;;5052175;28;20342;-87
2021/05/27 13:16:48;;;;;;;1.98;1.20;;;13.70;99.90;;;;;;5046521;28;20033;-87